createdAt,value
2022-12-08T00:01:14.285Z,96823.19
2022-12-08T00:04:16.081Z,96807.88
2022-12-08T00:07:36.305Z,96807.41
2022-12-08T00:10:48.873Z,96805.88
2022-12-08T00:13:51.444Z,96802.56
2022-12-08T00:16:53.789Z,96799.84
2022-12-08T00:19:55.375Z,96800.69
2022-12-08T00:22:56.830Z,96794.53
2022-12-08T00:26:02.474Z,96796.53
2022-12-08T00:29:04.786Z,96796.66
2022-12-08T00:32:06.831Z,96791.84
2022-12-08T00:35:08.707Z,96778.78
2022-12-08T00:38:10.254Z,96786.09
2022-12-08T00:41:18.163Z,96784.25
2022-12-08T00:44:20.089Z,96764.19
2022-12-08T00:47:24.791Z,96770.94
2022-12-08T00:50:26.666Z,96766.34
2022-12-08T00:53:28.213Z,96772.47
2022-12-08T00:56:30.004Z,96764.09
2022-12-08T00:59:31.709Z,96761.13
2022-12-08T01:02:35.243Z,96769.41
2022-12-08T01:05:36.847Z,96756.94
2022-12-08T01:08:39.700Z,96753.63
2022-12-08T01:11:41.490Z,96753.84
2022-12-08T01:14:43.192Z,96751.75
2022-12-08T01:17:44.787Z,96749.50
2022-12-08T01:20:46.535Z,96760.00
2022-12-08T01:23:48.139Z,96749.63
2022-12-08T01:26:50.558Z,96750.56
2022-12-08T01:29:52.090Z,96757.03
2022-12-08T01:32:53.744Z,96757.63
2022-12-08T01:35:55.986Z,96757.88
2022-12-08T01:38:59.803Z,96754.09
2022-12-08T01:42:01.320Z,96757.03
2022-12-08T01:45:15.195Z,96749.47
2022-12-08T01:48:27.180Z,96749.81
2022-12-08T01:51:33.397Z,96752.53
2022-12-08T01:54:41.665Z,96752.19
2022-12-08T01:57:54.018Z,96755.25
2022-12-08T02:00:55.710Z,96756.19
2022-12-08T02:03:59.891Z,96751.69
2022-12-08T02:07:07.754Z,96750.50
2022-12-08T02:10:11.942Z,96740.81
2022-12-08T02:13:17.607Z,96744.22
2022-12-08T02:16:35.195Z,96745.28
2022-12-08T02:19:57.971Z,96744.09
2022-12-08T02:23:11.575Z,96737.13
2022-12-08T02:26:24.769Z,96742.09
2022-12-08T02:29:32.687Z,96732.28
2022-12-08T02:32:37.191Z,96733.94
2022-12-08T02:35:57.531Z,96736.44
2022-12-08T02:39:11.215Z,96722.63
2022-12-08T02:42:30.750Z,96728.06
2022-12-08T02:45:39.771Z,96721.66
2022-12-08T02:48:42.048Z,96716.81
2022-12-08T02:51:43.667Z,96716.44
2022-12-08T02:54:50.496Z,96716.34
2022-12-08T02:58:05.603Z,96722.34
2022-12-08T03:01:44.372Z,96718.94
2022-12-08T03:05:03.762Z,96720.94
2022-12-08T03:08:26.661Z,96710.66
2022-12-08T03:11:44.401Z,96706.78
2022-12-08T03:14:50.562Z,96706.56
2022-12-08T03:17:57.080Z,96708.72
2022-12-08T03:20:59.735Z,96707.53
2022-12-08T03:24:04.301Z,96705.44
2022-12-08T03:27:09.749Z,96701.19
2022-12-08T03:30:11.830Z,96695.28
2022-12-08T03:33:23.146Z,96689.75
2022-12-08T03:36:25.812Z,96691.50
2022-12-08T03:39:27.316Z,96685.97
2022-12-08T03:42:28.875Z,96682.91
2022-12-08T03:45:30.691Z,96676.22
2022-12-08T03:48:32.201Z,96673.16
2022-12-08T03:51:33.817Z,96674.59
2022-12-08T03:54:35.325Z,96680.13
2022-12-08T03:57:36.938Z,96669.16
2022-12-08T04:00:38.550Z,96657.84
2022-12-08T04:03:40.363Z,96661.16
2022-12-08T04:06:41.947Z,96662.81
2022-12-08T04:09:44.893Z,96658.56
2022-12-08T04:12:46.419Z,96659.75
2022-12-08T04:15:48.446Z,96651.97
2022-12-08T04:18:50.086Z,96656.91
2022-12-08T04:21:51.738Z,96653.84
2022-12-08T04:24:53.288Z,96645.34
2022-12-08T04:27:54.863Z,96648.53
2022-12-08T04:30:56.551Z,96638.16
2022-12-08T04:33:58.058Z,96645.53
2022-12-08T04:36:59.575Z,96644.59
2022-12-08T04:40:01.261Z,96644.22
2022-12-08T04:43:02.962Z,96635.75
2022-12-08T04:46:08.735Z,96622.31
2022-12-08T04:49:10.455Z,96633.13
2022-12-08T04:52:11.983Z,96628.97
2022-12-08T04:55:13.678Z,96625.94
2022-12-08T04:58:17.693Z,96624.16
2022-12-08T05:01:19.284Z,96616.50
2022-12-08T05:04:20.912Z,96628.13
2022-12-08T05:07:22.365Z,96631.09
2022-12-08T05:10:24.091Z,96617.28
2022-12-08T05:13:25.615Z,96624.34
2022-12-08T05:16:27.276Z,96625.41
2022-12-08T05:19:28.745Z,96624.09
2022-12-08T05:22:30.888Z,96619.84
2022-12-08T05:25:32.404Z,96622.31
2022-12-08T05:28:42.951Z,96622.31
2022-12-08T05:31:44.891Z,96625.97
2022-12-08T05:34:46.510Z,96613.56
2022-12-08T05:37:48.051Z,96621.69
2022-12-08T05:40:49.802Z,96622.59
2022-12-08T05:43:51.381Z,96612.97
2022-12-08T05:46:53.089Z,96609.25
2022-12-08T05:49:54.707Z,96610.97
2022-12-08T05:52:56.415Z,96609.66
2022-12-08T05:55:58.011Z,96605.06
2022-12-08T05:59:00.550Z,96605.72
2022-12-08T06:02:02.349Z,96609.13
2022-12-08T06:05:04.268Z,96610.06
2022-12-08T06:08:05.884Z,96618.25
2022-12-08T06:11:07.797Z,96620.03
2022-12-08T06:14:12.242Z,96615.69
2022-12-08T06:17:13.755Z,96615.69
2022-12-08T06:20:15.349Z,96621.69
2022-12-08T06:23:16.874Z,96618.75
2022-12-08T06:26:18.967Z,96627.84
2022-12-08T06:29:20.592Z,96626.56
2022-12-08T06:32:27.272Z,96621.59
2022-12-08T06:35:29.315Z,96622.91
2022-12-08T06:38:31.269Z,96621.00
2022-12-08T06:41:32.836Z,96622.66
2022-12-08T06:44:34.441Z,96612.69
2022-12-08T06:47:36.175Z,96620.38
2022-12-08T06:50:37.659Z,96623.09
2022-12-08T06:53:39.702Z,96615.09
2022-12-08T06:56:41.399Z,96613.00
2022-12-08T06:59:42.838Z,96614.19
2022-12-08T07:02:44.510Z,96608.75
2022-12-08T07:05:46.872Z,96609.25
2022-12-08T07:08:48.661Z,96617.41
2022-12-08T07:11:50.411Z,96611.13
2022-12-08T07:14:52.085Z,96613.03
2022-12-08T07:17:59.374Z,96618.38
2022-12-08T07:21:07.550Z,96611.03
2022-12-08T07:24:09.327Z,96622.84
2022-12-08T07:27:10.934Z,96622.16
2022-12-08T07:30:13.077Z,96620.00
2022-12-08T07:33:14.972Z,96617.78
2022-12-08T07:36:17.864Z,96627.44
2022-12-08T07:39:25.776Z,96625.09
2022-12-08T07:42:27.585Z,96623.09
2022-12-08T07:45:31.673Z,96630.72
2022-12-08T07:48:33.771Z,96615.50
2022-12-08T07:51:35.374Z,96608.06
2022-12-08T07:54:36.940Z,96600.97
2022-12-08T07:57:38.569Z,96611.22
2022-12-08T08:00:40.316Z,96611.22
2022-12-08T08:03:41.934Z,96614.16
2022-12-08T08:06:43.703Z,96609.91
2022-12-08T08:09:45.826Z,96600.59
2022-12-08T08:12:47.819Z,96592.94
2022-12-08T08:15:49.616Z,96600.25
2022-12-08T08:18:51.387Z,96594.53
2022-12-08T08:21:53.052Z,96595.59
2022-12-08T08:24:54.713Z,96603.44
2022-12-08T08:27:56.618Z,96595.88
2022-12-08T08:30:59.752Z,96597.28
2022-12-08T08:34:06.497Z,96600.91
2022-12-08T08:37:08.465Z,96602.75
2022-12-08T08:40:10.370Z,96597.38
2022-12-08T08:43:36.245Z,96602.75
2022-12-08T08:46:39.865Z,96591.63
2022-12-08T08:49:41.653Z,96603.69
2022-12-08T08:52:43.203Z,96596.09
2022-12-08T08:55:44.902Z,96602.53
2022-12-08T08:58:50.468Z,96598.03
2022-12-08T09:01:52.399Z,96589.72
2022-12-08T09:04:54.734Z,96586.97
2022-12-08T09:07:56.368Z,96585.38
2022-12-08T09:10:57.892Z,96580.06
2022-12-08T09:13:59.581Z,96574.44
2022-12-08T09:17:01.196Z,96582.44
2022-12-08T09:20:03.399Z,96575.75
2022-12-08T09:23:05.372Z,96578.50
2022-12-08T09:26:07.562Z,96572.34
2022-12-08T09:29:10.277Z,96574.28
2022-12-08T09:32:11.816Z,96576.78
2022-12-08T09:35:13.699Z,96569.00
2022-12-08T09:38:15.398Z,96567.22
2022-12-08T09:41:24.526Z,96570.13
2022-12-08T09:44:44.920Z,96560.94
2022-12-08T09:48:10.750Z,96549.28
2022-12-08T09:51:15.976Z,96553.25
2022-12-08T09:54:32.455Z,96543.66
2022-12-08T09:57:34.183Z,96533.34
2022-12-08T10:00:35.931Z,96530.09
2022-12-08T10:03:37.827Z,96521.28
2022-12-08T10:07:00.000Z,96527.28
2022-12-08T10:10:50.909Z,96511.78
2022-12-08T10:14:16.847Z,96509.97
2022-12-08T10:17:49.056Z,96510.75
2022-12-08T10:20:52.060Z,96508.91
2022-12-08T10:24:01.882Z,96509.03
2022-12-08T10:27:05.415Z,96501.69
2022-12-08T10:30:18.657Z,96499.72
2022-12-08T10:33:22.551Z,96497.44
2022-12-08T10:36:44.977Z,96487.75
2022-12-08T10:39:46.893Z,96490.06
2022-12-08T10:42:52.544Z,96489.50
2022-12-08T10:45:54.778Z,96476.22
2022-12-08T10:49:11.403Z,96475.38
2022-12-08T10:52:23.827Z,96460.16
2022-12-08T10:55:26.139Z,96458.00
2022-12-08T10:58:35.722Z,96462.22
2022-12-08T11:01:40.130Z,96451.06
2022-12-08T11:04:42.008Z,96443.28
2022-12-08T11:07:53.236Z,96440.06
2022-12-08T11:10:55.181Z,96438.69
2022-12-08T11:13:56.763Z,96428.31
2022-12-08T11:17:09.072Z,96438.66
2022-12-08T11:20:10.834Z,96429.22
2022-12-08T11:23:22.822Z,96432.50
2022-12-08T11:26:31.675Z,96423.53
2022-12-08T11:29:35.343Z,96417.97
2022-12-08T11:32:40.482Z,96407.31
2022-12-08T11:35:45.831Z,96405.50
2022-12-08T11:38:52.112Z,96414.09
2022-12-08T11:41:56.607Z,96411.72
2022-12-08T11:45:03.743Z,96413.00
2022-12-08T11:48:19.431Z,96409.22
2022-12-08T11:51:36.323Z,96416.47
2022-12-08T11:54:57.348Z,96407.94
2022-12-08T11:58:10.921Z,96414.72
2022-12-08T12:01:21.303Z,96409.13
2022-12-08T12:04:26.518Z,96406.53
2022-12-08T12:08:10.398Z,96396.50
2022-12-08T12:11:44.790Z,96391.59
2022-12-08T12:15:08.263Z,96391.38
2022-12-08T12:18:24.165Z,96379.22
2022-12-08T12:21:43.483Z,96391.88
2022-12-08T12:24:49.204Z,96371.88
2022-12-08T12:27:57.202Z,96373.91
2022-12-08T12:31:05.630Z,96373.22
2022-12-08T12:34:32.146Z,96370.47
2022-12-08T12:37:38.587Z,96377.28
2022-12-08T12:40:41.991Z,96371.50
2022-12-08T12:44:09.327Z,96372.56
2022-12-08T12:47:13.327Z,96374.19
2022-12-08T12:50:34.817Z,96381.72
2022-12-08T12:53:36.215Z,96375.63
2022-12-08T12:56:52.945Z,96376.66
2022-12-08T12:59:55.882Z,96372.34
2022-12-08T13:02:58.857Z,96374.13
2022-12-08T13:06:00.966Z,96365.75
2022-12-08T13:09:03.831Z,96371.19
2022-12-08T13:12:12.775Z,96369.50
2022-12-08T13:15:20.327Z,96377.03
2022-12-08T13:18:27.115Z,96368.88
2022-12-08T13:21:34.751Z,96362.97
2022-12-08T13:24:36.431Z,96348.72
2022-12-08T13:27:52.408Z,96360.34
2022-12-08T13:30:56.181Z,96354.31
2022-12-08T13:33:58.891Z,96357.91
2022-12-08T13:37:00.440Z,96350.22
2022-12-08T13:40:07.580Z,96348.59
2022-12-08T13:43:24.604Z,96349.41
2022-12-08T13:57:11.318Z,96347.81
2022-12-08T14:00:20.677Z,96358.19
2022-12-08T14:03:22.403Z,96356.94
2022-12-08T14:06:31.330Z,96353.97
2022-12-08T14:09:36.576Z,96349.13
2022-12-08T14:12:39.659Z,96354.72
2022-12-08T14:15:41.337Z,96345.47
2022-12-08T14:18:42.946Z,96339.53
2022-12-08T14:21:57.281Z,96334.72
2022-12-08T14:24:59.063Z,96341.97
2022-12-08T14:28:03.628Z,96330.63
2022-12-08T14:31:05.182Z,96338.63
2022-12-08T14:34:06.751Z,96336.63
2022-12-08T14:37:12.943Z,96336.41
2022-12-08T14:40:36.135Z,96329.25
2022-12-08T14:43:37.797Z,96340.81
2022-12-08T14:46:40.157Z,96327.41
2022-12-08T14:49:42.045Z,96330.56
2022-12-08T14:52:44.833Z,96337.22
2022-12-08T14:55:48.226Z,96330.38
2022-12-08T14:59:03.230Z,96338.72
2022-12-08T15:02:19.450Z,96344.28
2022-12-08T15:05:21.832Z,96341.38
2022-12-08T15:08:24.186Z,96343.63
2022-12-08T15:11:31.605Z,96339.97
2022-12-08T15:14:36.341Z,96344.34
2022-12-08T15:17:57.422Z,96335.47
2022-12-08T15:21:05.124Z,96331.94
2022-12-08T15:24:10.556Z,96321.13
2022-12-08T15:27:18.932Z,96322.31
2022-12-08T15:30:20.746Z,96324.63
2022-12-08T15:33:22.361Z,96319.91
2022-12-08T15:36:23.963Z,96317.97
2022-12-08T15:39:32.866Z,96312.88
2022-12-08T15:42:34.399Z,96303.50
2022-12-08T15:45:36.071Z,96297.41
2022-12-08T15:48:37.820Z,96299.13
2022-12-08T15:51:39.337Z,96304.78
2022-12-08T15:54:41.049Z,96307.16
2022-12-08T16:01:10.411Z,96312.53
2022-12-08T16:07:38.270Z,96316.38
2022-12-08T16:11:24.119Z,96310.09
2022-12-08T16:14:47.162Z,96308.44
2022-12-08T16:17:26.574Z,96298.16
2022-12-08T16:20:44.053Z,96297.91
2022-12-08T16:23:49.762Z,96284.19
2022-12-08T16:30:17.503Z,96283.88
2022-12-08T16:33:19.341Z,96272.81
2022-12-08T16:36:21.053Z,96275.03
2022-12-08T16:39:22.615Z,96276.22
2022-12-08T16:42:45.760Z,96271.16
2022-12-08T16:45:47.411Z,96266.75
2022-12-08T16:48:49.496Z,96271.63
2022-12-08T16:51:50.969Z,96263.44
2022-12-08T16:54:52.570Z,96273.28
2022-12-08T16:57:54.932Z,96275.31
2022-12-08T17:00:56.497Z,96281.47
2022-12-08T17:04:29.681Z,96274.06
2022-12-08T17:07:20.011Z,96279.09
2022-12-08T17:10:25.069Z,96271.97
2022-12-08T17:13:26.683Z,96280.28
2022-12-08T17:16:28.258Z,96275.34
2022-12-08T17:19:29.809Z,96279.28
2022-12-08T17:22:32.367Z,96285.00
2022-12-08T17:25:33.932Z,96288.81
2022-12-08T17:28:59.584Z,96294.13
2022-12-08T17:31:57.738Z,96290.28
2022-12-08T17:34:59.378Z,96299.81
2022-12-08T17:38:00.903Z,96300.50
2022-12-08T17:41:04.961Z,96292.13
2022-12-08T17:44:14.146Z,96287.81
2022-12-08T17:47:15.745Z,96283.25
2022-12-08T17:50:20.435Z,96280.22
2022-12-08T17:53:22.879Z,96284.16
2022-12-08T17:56:24.418Z,96279.56
2022-12-08T17:59:27.933Z,96287.75
2022-12-08T18:02:30.981Z,96280.31
2022-12-08T18:05:35.198Z,96275.53
2022-12-08T18:08:37.628Z,96274.56
2022-12-08T18:11:39.236Z,96281.28
2022-12-08T18:14:40.848Z,96286.84
2022-12-08T18:17:42.446Z,96279.47
2022-12-08T18:20:44.028Z,96279.25
2022-12-08T18:23:46.130Z,96275.59
2022-12-08T18:26:48.271Z,96279.81
2022-12-08T18:29:49.798Z,96266.97
2022-12-08T18:32:57.083Z,96270.53
2022-12-08T18:35:58.842Z,96281.53
2022-12-08T18:39:01.070Z,96263.06
2022-12-08T18:42:22.888Z,96256.72
2022-12-08T18:45:24.644Z,96250.28
2022-12-08T18:48:26.128Z,96252.75
2022-12-08T18:51:27.963Z,96240.47
2022-12-08T18:54:57.742Z,96245.22
2022-12-08T18:57:51.171Z,96237.56
2022-12-08T19:00:52.765Z,96246.19
2022-12-08T19:04:20.102Z,96249.81
2022-12-08T19:07:19.926Z,96240.25
2022-12-08T19:10:21.489Z,96242.31
2022-12-08T19:13:23.217Z,96233.13
2022-12-08T19:16:25.085Z,96236.22
2022-12-08T19:19:27.908Z,96240.44
2022-12-08T19:22:29.378Z,96230.06
2022-12-08T19:25:30.943Z,96228.69
2022-12-08T19:28:33.694Z,96225.63
2022-12-08T19:31:35.496Z,96233.22
2022-12-08T19:34:37.162Z,96234.63
2022-12-08T19:37:38.844Z,96218.88
2022-12-08T19:41:02.826Z,96213.94
2022-12-08T19:44:16.625Z,96209.13
2022-12-08T19:47:18.773Z,96205.69
2022-12-08T19:50:39.165Z,96212.06
2022-12-08T19:53:47.297Z,96206.31
2022-12-08T19:56:49.434Z,96211.72
2022-12-08T19:59:56.191Z,96214.59
2022-12-08T20:02:59.740Z,96209.53
2022-12-08T20:06:01.289Z,96202.44
2022-12-08T20:09:02.954Z,96201.63
2022-12-08T20:12:04.947Z,96186.47
2022-12-08T20:15:08.597Z,96198.47
2022-12-08T20:18:11.608Z,96199.53
2022-12-08T20:21:13.227Z,96204.81
2022-12-08T20:24:16.618Z,96201.53
2022-12-08T20:27:18.196Z,96206.69
2022-12-08T20:30:19.811Z,96203.19
2022-12-08T20:33:21.374Z,96204.81
2022-12-08T20:36:24.341Z,96202.38
2022-12-08T20:39:26.087Z,96198.34
2022-12-08T20:42:27.612Z,96207.31
2022-12-08T20:45:29.157Z,96209.09
2022-12-08T20:48:30.775Z,96209.66
2022-12-08T20:51:33.585Z,96213.88
2022-12-08T20:54:35.714Z,96207.91
2022-12-08T20:57:37.376Z,96208.38
2022-12-08T21:00:39.071Z,96204.63
2022-12-08T21:03:41.417Z,96200.03
2022-12-08T21:06:43.187Z,96201.78
2022-12-08T21:09:45.010Z,96199.66
2022-12-08T21:12:46.639Z,96192.84
2022-12-08T21:15:54.998Z,96195.78
2022-12-08T21:18:59.197Z,96196.09
2022-12-08T21:22:00.939Z,96192.19
2022-12-08T21:25:03.269Z,96191.94
2022-12-08T21:28:04.982Z,96184.06
2022-12-08T21:31:09.011Z,96173.94
2022-12-08T21:34:10.886Z,96180.59
2022-12-08T21:37:12.668Z,96168.94
2022-12-08T21:40:14.426Z,96170.44
2022-12-08T21:43:15.961Z,96174.00
2022-12-08T21:46:20.749Z,96161.69
2022-12-08T21:49:22.388Z,96165.53
2022-12-08T21:52:23.967Z,96165.00
2022-12-08T21:55:25.576Z,96167.25
2022-12-08T21:58:28.211Z,96164.13
2022-12-08T22:01:30.059Z,96157.63
2022-12-08T22:04:31.707Z,96158.31
2022-12-08T22:07:33.338Z,96160.53
2022-12-08T22:10:34.919Z,96146.63
2022-12-08T22:13:39.444Z,96139.81
2022-12-08T22:16:41.449Z,96145.66
2022-12-08T22:19:43.301Z,96135.06
2022-12-08T22:22:45.587Z,96135.50
2022-12-08T22:26:00.914Z,96136.56
2022-12-08T22:29:02.502Z,96139.16
2022-12-08T22:32:04.232Z,96139.47
2022-12-08T22:35:06.071Z,96136.47
2022-12-08T22:38:07.581Z,96140.16
2022-12-08T22:41:09.085Z,96151.53
2022-12-08T22:44:12.555Z,96149.22
2022-12-08T22:47:14.195Z,96133.69
2022-12-08T22:50:15.729Z,96124.50
2022-12-08T22:53:17.338Z,96116.03
2022-12-08T22:56:19.894Z,96115.22
2022-12-08T22:59:21.444Z,96113.84
2022-12-08T23:02:23.007Z,96103.03
2022-12-08T23:05:24.751Z,96105.06
2022-12-08T23:08:26.581Z,96098.50
2022-12-08T23:11:30.348Z,96094.94
2022-12-08T23:14:31.965Z,96092.91
2022-12-08T23:17:33.851Z,96095.50
2022-12-08T23:20:35.701Z,96102.22
2022-12-08T23:23:38.156Z,96100.88
2022-12-08T23:26:39.907Z,96102.25
2022-12-08T23:29:41.413Z,96097.22
2022-12-08T23:32:43.042Z,96102.59
2022-12-08T23:35:44.798Z,96089.47
2022-12-08T23:38:47.290Z,96088.34
2022-12-08T23:41:48.848Z,96069.19
2022-12-08T23:44:50.423Z,96073.25
2022-12-08T23:47:52.000Z,96061.16
2022-12-08T23:50:53.855Z,96063.31
2022-12-08T23:53:55.688Z,96063.13
2022-12-08T23:56:57.379Z,96064.88
2022-12-08T23:59:58.930Z,96058.31
